Time;durP1;ratioP1;P1;durP2;ratioP2;P2;SDS_P1;SDS_P2;PMS_P1;PMS_P2;Temp;Humidity;BMP_temperature;BMP_pressure;BME280_temperature;BME280_humidity;BME280_pressure;Samples;Min_cycle;Max_cycle;Signal;HPM_P1;HPM_P2
2023/05/01 00:01:20;;;;;;;7.72;5.25;;;;;;;;;;5064606;28;20048;-70
2023/05/01 00:03:46;;;;;;;8.13;5.25;;;;;;;;;;5074243;28;20035;-70
2023/05/01 00:06:12;;;;;;;8.63;5.43;;;;;;;;;;5074693;28;20049;-69
2023/05/01 00:08:38;;;;;;;10.73;6.00;;;;;;;;;;5075696;28;20405;-70
2023/05/01 00:11:08;;;;;;;12.00;6.30;;;;;;;;;;5075013;28;20052;-70
2023/05/01 00:13:35;;;;;;;11.25;6.80;;;;;;;;;;5075588;28;20071;-70
2023/05/01 00:16:01;;;;;;;9.73;6.60;;;;;;;;;;5075412;28;20037;-70
2023/05/01 00:18:29;;;;;;;10.65;6.88;;;;;;;;;;5074260;28;20569;-70
2023/05/01 00:20:56;;;;;;;12.48;7.05;;;;;;;;;;5075267;28;20043;-70
2023/05/01 00:23:22;;;;;;;12.25;6.68;;;;;;;;;;5074062;28;20087;-69
2023/05/01 00:25:48;;;;;;;11.80;7.10;;;;;;;;;;5073853;28;20095;-70
2023/05/01 00:28:14;;;;;;;9.88;7.20;;;;;;;;;;5075510;28;20054;-69
2023/05/01 00:30:40;;;;;;;13.85;6.85;;;;;;;;;;5073857;28;20056;-69
2023/05/01 00:33:06;;;;;;;10.90;6.75;;;;;;;;;;5075174;28;20485;-70
2023/05/01 00:35:34;;;;;;;9.98;6.53;;;;;;;;;;5074983;28;20040;-69
2023/05/01 00:38:00;;;;;;;11.73;6.65;;;;;;;;;;5074884;28;20044;-69
2023/05/01 00:40:26;;;;;;;11.48;6.25;;;;;;;;;;5074203;28;20037;-69
2023/05/01 00:42:53;;;;;;;9.77;6.07;;;;;;;;;;5074615;28;20033;-70
2023/05/01 00:45:19;;;;;;;9.88;5.50;;;;;;;;;;5074500;28;20045;-70
2023/05/01 00:47:45;;;;;;;10.10;5.72;;;;;;;;;;5075123;28;20045;-70
2023/05/01 00:50:12;;;;;;;13.40;5.68;;;;;;;;;;5074699;28;20044;-69
2023/05/01 00:52:38;;;;;;;7.55;5.00;;;;;;;;;;5074272;28;20492;-69
2023/05/01 00:55:05;;;;;;;8.93;5.45;;;;;;;;;;5073966;28;20088;-70
2023/05/01 00:57:31;;;;;;;9.02;5.40;;;;;;;;;;5073256;28;20146;-69
2023/05/01 00:59:57;;;;;;;12.98;5.20;;;;;;;;;;5074279;28;20044;-69
2023/05/01 01:02:23;;;;;;;9.35;4.85;;;;;;;;;;5074630;28;20040;-69
2023/05/01 01:04:49;;;;;;;11.90;5.00;;;;;;;;;;5073709;28;20118;-69
2023/05/01 01:07:20;;;;;;;10.45;5.55;;;;;;;;;;5072795;28;20064;-71
2023/05/01 01:10:04;;;;;;;8.10;4.60;;;;;;;;;;5074453;28;20118;-70
2023/05/01 01:12:49;;;;;;;9.80;4.45;;;;;;;;;;5075446;28;20080;-70
2023/05/01 01:15:21;;;;;;;11.73;5.10;;;;;;;;;;5077185;28;20124;-70
2023/05/01 01:18:04;;;;;;;12.52;5.55;;;;;;;;;;5074453;28;20078;-69
2023/05/01 01:20:31;;;;;;;10.85;4.90;;;;;;;;;;5074039;28;20120;-69
2023/05/01 01:23:09;;;;;;;7.93;4.60;;;;;;;;;;5074208;28;20051;-69
2023/05/01 01:25:55;;;;;;;8.75;4.85;;;;;;;;;;5073458;28;20464;-69
2023/05/01 01:28:24;;;;;;;11.23;5.28;;;;;;;;;;5072642;28;20524;-70
2023/05/01 01:30:55;;;;;;;10.18;5.53;;;;;;;;;;5073777;28;20087;-70
2023/05/01 01:33:40;;;;;;;10.05;5.10;;;;;;;;;;5074310;28;20044;-70
2023/05/01 01:36:09;;;;;;;9.77;5.55;;;;;;;;;;5073916;28;20040;-71
2023/05/01 01:38:45;;;;;;;10.52;5.15;;;;;;;;;;5073799;28;20086;-69
2023/05/01 01:41:14;;;;;;;9.80;5.28;;;;;;;;;;5071749;28;20183;-70
2023/05/01 01:43:43;;;;;;;10.27;6.32;;;;;;;;;;5072194;28;20036;-69
2023/05/01 01:46:10;;;;;;;15.05;9.52;;;;;;;;;;5072075;28;20129;-70
2023/05/01 01:48:39;;;;;;;16.85;9.93;;;;;;;;;;5073719;28;20045;-70
2023/05/01 01:51:08;;;;;;;12.95;9.05;;;;;;;;;;5073184;28;20491;-70
2023/05/01 01:53:36;;;;;;;18.35;10.38;;;;;;;;;;5072771;28;20041;-70
2023/05/01 01:56:03;;;;;;;12.65;9.32;;;;;;;;;;5071886;28;20040;-70
2023/05/01 01:58:30;;;;;;;13.05;8.80;;;;;;;;;;5073079;28;20044;-70
2023/05/01 02:00:57;;;;;;;12.25;8.40;;;;;;;;;;5071143;28;20094;-70
2023/05/01 02:03:23;;;;;;;16.33;7.80;;;;;;;;;;5073260;28;20405;-69
2023/05/01 02:05:50;;;;;;;15.13;7.45;;;;;;;;;;5071650;28;20051;-70
2023/05/01 02:08:17;;;;;;;10.88;6.70;;;;;;;;;;5071828;28;20057;-70
2023/05/01 02:10:43;;;;;;;12.13;6.50;;;;;;;;;;5072671;28;20466;-70
2023/05/01 02:13:10;;;;;;;9.90;6.50;;;;;;;;;;5072702;28;20413;-70
2023/05/01 02:15:37;;;;;;;10.20;5.85;;;;;;;;;;5071773;28;20040;-70
2023/05/01 02:18:04;;;;;;;11.98;5.80;;;;;;;;;;5072978;28;20044;-70
2023/05/01 02:20:31;;;;;;;14.57;5.85;;;;;;;;;;5054542;28;20474;-70
2023/05/01 02:22:58;;;;;;;10.93;5.72;;;;;;;;;;5071247;28;20466;-70
2023/05/01 02:25:24;;;;;;;10.70;6.22;;;;;;;;;;5071048;28;20040;-70
2023/05/01 02:27:55;;;;;;;12.20;6.85;;;;;;;;;;5071432;28;20067;-70
2023/05/01 02:30:21;;;;;;;15.32;7.95;;;;;;;;;;5069654;28;20033;-70
2023/05/01 02:32:47;;;;;;;14.38;8.98;;;;;;;;;;5072373;28;20046;-70
2023/05/01 02:35:13;;;;;;;15.32;10.50;;;;;;;;;;5072494;28;20041;-70
2023/05/01 02:37:39;;;;;;;16.38;10.80;;;;;;;;;;5071411;28;20049;-70
2023/05/01 02:40:06;;;;;;;15.60;11.00;;;;;;;;;;5070911;28;20041;-70
2023/05/01 02:42:32;;;;;;;15.45;11.18;;;;;;;;;;5070981;28;20122;-70
2023/05/01 02:45:03;;;;;;;15.27;11.48;;;;;;;;;;5070888;28;20040;-70
2023/05/01 02:47:32;;;;;;;18.98;11.05;;;;;;;;;;5072342;28;20040;-70
2023/05/01 02:49:58;;;;;;;15.00;9.77;;;;;;;;;;5071609;28;20041;-70
2023/05/01 02:52:25;;;;;;;15.32;8.63;;;;;;;;;;5070590;28;20191;-70
2023/05/01 02:54:51;;;;;;;13.80;9.32;;;;;;;;;;5062992;28;20048;-70
2023/05/01 02:57:19;;;;;;;15.18;8.52;;;;;;;;;;5072360;28;20047;-71
2023/05/01 02:59:45;;;;;;;11.80;7.97;;;;;;;;;;5071027;28;20045;-70
2023/05/01 03:02:11;;;;;;;12.80;7.30;;;;;;;;;;5072581;28;20128;-70
2023/05/01 03:04:37;;;;;;;10.75;7.03;;;;;;;;;;5072579;28;20040;-70
2023/05/01 03:07:03;;;;;;;10.98;6.88;;;;;;;;;;5072383;28;20083;-70
2023/05/01 03:09:30;;;;;;;12.80;6.57;;;;;;;;;;5071200;28;20095;-70
2023/05/01 03:11:56;;;;;;;11.68;6.38;;;;;;;;;;5072384;28;20086;-70
2023/05/01 03:14:22;;;;;;;10.25;6.43;;;;;;;;;;5072640;28;20049;-70
2023/05/01 03:16:48;;;;;;;10.60;5.82;;;;;;;;;;5070229;28;20507;-70
2023/05/01 03:19:14;;;;;;;10.18;5.60;;;;;;;;;;5072512;28;20037;-70
2023/05/01 03:21:41;;;;;;;11.05;5.82;;;;;;;;;;5072167;28;20535;-69
2023/05/01 03:24:07;;;;;;;10.55;6.50;;;;;;;;;;5071467;28;20290;-70
2023/05/01 03:26:33;;;;;;;9.48;5.95;;;;;;;;;;5069834;28;20044;-70
2023/05/01 03:28:59;;;;;;;8.88;5.95;;;;;;;;;;5073225;28;20070;-70
2023/05/01 03:31:25;;;;;;;8.90;5.75;;;;;;;;;;5076152;28;20083;-69
2023/05/01 03:33:51;;;;;;;10.85;6.28;;;;;;;;;;5076619;28;20072;-69
2023/05/01 03:36:17;;;;;;;12.88;6.53;;;;;;;;;;5076376;28;20072;-69
2023/05/01 03:38:44;;;;;;;13.30;6.63;;;;;;;;;;5076427;28;20076;-69
2023/05/01 03:41:10;;;;;;;15.15;6.28;;;;;;;;;;5075915;28;20052;-70
2023/05/01 03:43:36;;;;;;;10.07;6.18;;;;;;;;;;5073317;28;20052;-70
2023/05/01 03:46:02;;;;;;;14.75;6.20;;;;;;;;;;5074033;28;20045;-70
2023/05/01 03:48:28;;;;;;;10.63;5.70;;;;;;;;;;5075857;28;20059;-70
2023/05/01 03:50:55;;;;;;;13.18;6.78;;;;;;;;;;5075631;28;20420;-70
2023/05/01 03:53:21;;;;;;;11.95;6.45;;;;;;;;;;5075307;28;20094;-70
2023/05/01 03:55:47;;;;;;;10.85;6.22;;;;;;;;;;5072755;28;20041;-71
2023/05/01 03:58:13;;;;;;;12.02;6.10;;;;;;;;;;5075169;28;20124;-69
2023/05/01 04:00:40;;;;;;;9.93;6.45;;;;;;;;;;5075296;28;20074;-69
2023/05/01 04:03:06;;;;;;;12.27;6.43;;;;;;;;;;5075990;28;20052;-70
2023/05/01 04:05:33;;;;;;;13.35;7.00;;;;;;;;;;5074550;28;20036;-69
2023/05/01 04:07:59;;;;;;;13.23;7.15;;;;;;;;;;5074757;28;20520;-69
2023/05/01 04:10:25;;;;;;;13.57;7.18;;;;;;;;;;5076088;28;20124;-70
2023/05/01 04:12:51;;;;;;;10.50;6.60;;;;;;;;;;5075491;28;20079;-70
2023/05/01 04:15:17;;;;;;;10.60;6.28;;;;;;;;;;5073297;28;20044;-70
2023/05/01 04:17:44;;;;;;;15.82;7.20;;;;;;;;;;5075429;28;20040;-70
2023/05/01 04:20:11;;;;;;;13.30;6.72;;;;;;;;;;5073862;28;20370;-70
2023/05/01 04:22:37;;;;;;;14.85;6.80;;;;;;;;;;5072071;28;20043;-70
2023/05/01 04:25:07;;;;;;;11.45;6.93;;;;;;;;;;5073105;28;20044;-70
2023/05/01 04:27:33;;;;;;;12.75;6.85;;;;;;;;;;5072066;28;20595;-70
2023/05/01 04:29:59;;;;;;;15.07;7.28;;;;;;;;;;5075063;28;20041;-70
2023/05/01 04:32:25;;;;;;;13.40;6.97;;;;;;;;;;5073545;28;20044;-70
2023/05/01 04:34:52;;;;;;;12.40;7.55;;;;;;;;;;5074942;28;20045;-70
2023/05/01 04:37:18;;;;;;;11.73;7.03;;;;;;;;;;5074450;28;20047;-70
2023/05/01 04:39:44;;;;;;;12.50;6.63;;;;;;;;;;5072853;28;20047;-70
2023/05/01 04:42:10;;;;;;;12.20;7.13;;;;;;;;;;5074453;28;20048;-70
2023/05/01 04:44:36;;;;;;;11.23;6.82;;;;;;;;;;5073280;28;20033;-70
2023/05/01 04:47:03;;;;;;;15.60;7.05;;;;;;;;;;5073267;28;20131;-70
2023/05/01 04:49:29;;;;;;;11.68;6.68;;;;;;;;;;5074599;28;20126;-71
2023/05/01 04:51:55;;;;;;;13.70;6.85;;;;;;;;;;5073988;28;20049;-70
2023/05/01 04:54:22;;;;;;;13.57;6.75;;;;;;;;;;5072794;28;20047;-70
2023/05/01 04:56:48;;;;;;;14.15;6.85;;;;;;;;;;5073361;28;20075;-70
2023/05/01 04:59:14;;;;;;;10.00;6.75;;;;;;;;;;5068684;28;20052;-71
2023/05/01 05:01:41;;;;;;;10.35;6.35;;;;;;;;;;5072511;28;20081;-70
2023/05/01 05:04:07;;;;;;;10.25;6.45;;;;;;;;;;5072784;28;20400;-70
2023/05/01 05:06:33;;;;;;;14.48;7.20;;;;;;;;;;5073168;28;20144;-71
2023/05/01 05:08:59;;;;;;;12.80;7.35;;;;;;;;;;5072974;28;20063;-70
2023/05/01 05:11:25;;;;;;;12.63;6.55;;;;;;;;;;5073553;28;20047;-70
2023/05/01 05:13:51;;;;;;;11.18;6.32;;;;;;;;;;5072602;28;20451;-70
2023/05/01 05:16:17;;;;;;;13.52;7.10;;;;;;;;;;5074214;28;20051;-70
2023/05/01 05:18:43;;;;;;;15.13;6.32;;;;;;;;;;5072777;28;20132;-70
2023/05/01 05:21:09;;;;;;;13.90;6.60;;;;;;;;;;5073112;28;20484;-70
2023/05/01 05:23:36;;;;;;;13.98;7.25;;;;;;;;;;5073548;28;20452;-70
2023/05/01 05:26:02;;;;;;;13.48;6.70;;;;;;;;;;5072187;28;20044;-70
2023/05/01 05:28:28;;;;;;;14.27;7.13;;;;;;;;;;5073242;28;20048;-70
2023/05/01 05:30:55;;;;;;;12.88;6.70;;;;;;;;;;5073642;28;20431;-70
2023/05/01 05:33:23;;;;;;;11.95;6.32;;;;;;;;;;5072229;28;20084;-70
2023/05/01 05:35:50;;;;;;;13.75;6.75;;;;;;;;;;5071366;28;20045;-70
2023/05/01 05:38:16;;;;;;;12.90;6.53;;;;;;;;;;5072071;28;20162;-70
2023/05/01 05:40:42;;;;;;;16.60;7.28;;;;;;;;;;5073148;28;20044;-70
2023/05/01 05:43:09;;;;;;;17.42;7.05;;;;;;;;;;5072726;28;20481;-71
2023/05/01 05:45:35;;;;;;;18.75;7.55;;;;;;;;;;5072807;28;20095;-69
2023/05/01 05:48:02;;;;;;;12.88;6.93;;;;;;;;;;5072328;28;20048;-70
2023/05/01 05:50:28;;;;;;;17.98;7.35;;;;;;;;;;5072020;28;20052;-70
2023/05/01 05:52:55;;;;;;;17.83;7.18;;;;;;;;;;5071435;28;20052;-73
2023/05/01 05:55:21;;;;;;;14.85;7.20;;;;;;;;;;5072462;28;20045;-73
2023/05/01 05:57:47;;;;;;;15.48;7.30;;;;;;;;;;5071785;28;20051;-72
2023/05/01 06:00:13;;;;;;;14.13;6.90;;;;;;;;;;5068982;28;20433;-72
2023/05/01 06:02:39;;;;;;;14.48;6.45;;;;;;;;;;5070421;28;20503;-73
2023/05/01 06:05:05;;;;;;;16.98;7.50;;;;;;;;;;5073010;28;20427;-72
2023/05/01 06:07:31;;;;;;;16.20;6.80;;;;;;;;;;5072913;28;20469;-72
2023/05/01 06:10:04;;;;;;;14.52;7.32;;;;;;;;;;5054772;28;20151;-73
2023/05/01 06:12:30;;;;;;;13.85;6.95;;;;;;;;;;5072806;28;20067;-73
2023/05/01 06:14:57;;;;;;;18.27;7.10;;;;;;;;;;5072828;28;20083;-72
2023/05/01 06:17:24;;;;;;;20.10;7.45;;;;;;;;;;5072244;28;20044;-73
2023/05/01 06:19:53;;;;;;;20.02;7.57;;;;;;;;;;5072840;28;20080;-73
2023/05/01 06:22:19;;;;;;;15.55;7.38;;;;;;;;;;5072461;28;20040;-73
2023/05/01 06:24:45;;;;;;;20.13;6.88;;;;;;;;;;5071125;28;20349;-72
2023/05/01 06:27:12;;;;;;;16.67;6.88;;;;;;;;;;5072190;28;20041;-72
2023/05/01 06:29:38;;;;;;;16.02;6.88;;;;;;;;;;5069786;28;20551;-73
2023/05/01 06:32:04;;;;;;;13.32;7.65;;;;;;;;;;5053473;28;20048;-73
2023/05/01 06:34:30;;;;;;;15.82;6.82;;;;;;;;;;5071480;28;20052;-73
2023/05/01 06:36:56;;;;;;;18.95;7.15;;;;;;;;;;5070561;28;20044;-73
2023/05/01 06:39:22;;;;;;;17.92;7.35;;;;;;;;;;5072310;28;20173;-73
2023/05/01 06:41:48;;;;;;;12.65;7.05;;;;;;;;;;5071009;28;20040;-72
2023/05/01 06:44:15;;;;;;;18.58;7.93;;;;;;;;;;5070877;28;20041;-72
2023/05/01 06:46:41;;;;;;;18.90;7.65;;;;;;;;;;5068054;28;20115;-73
2023/05/01 06:49:07;;;;;;;20.75;8.10;;;;;;;;;;5071454;28;20131;-72
2023/05/01 06:51:33;;;;;;;18.80;8.02;;;;;;;;;;5071817;28;20048;-73
2023/05/01 06:53:59;;;;;;;25.92;8.65;;;;;;;;;;5070578;28;20041;-73
2023/05/01 06:56:25;;;;;;;18.45;7.85;;;;;;;;;;5072360;28;20047;-73
2023/05/01 06:58:51;;;;;;;16.17;8.35;;;;;;;;;;5072814;28;20049;-72
2023/05/01 07:01:20;;;;;;;13.13;8.02;;;;;;;;;;5055124;28;20080;-73
2023/05/01 07:03:46;;;;;;;22.35;8.73;;;;;;;;;;5052779;28;20398;-73
2023/05/01 07:06:12;;;;;;;15.70;9.15;;;;;;;;;;5071826;28;20082;-73
2023/05/01 07:08:39;;;;;;;20.15;8.98;;;;;;;;;;5072308;28;20074;-73
2023/05/01 07:11:06;;;;;;;15.65;8.05;;;;;;;;;;5071881;28;20044;-73
2023/05/01 07:13:32;;;;;;;36.75;8.50;;;;;;;;;;5070834;28;20493;-72
2023/05/01 07:15:58;;;;;;;18.33;8.15;;;;;;;;;;5069918;28;20086;-72
2023/05/01 07:18:24;;;;;;;13.70;8.13;;;;;;;;;;5071781;28;20041;-73
2023/05/01 07:20:51;;;;;;;12.57;7.80;;;;;;;;;;5070436;28;20123;-72
2023/05/01 07:23:17;;;;;;;11.15;6.50;;;;;;;;;;5070923;28;20146;-72
2023/05/01 07:25:44;;;;;;;11.63;7.03;;;;;;;;;;5070654;28;20366;-72
2023/05/01 07:28:10;;;;;;;13.48;7.03;;;;;;;;;;5072126;28;20044;-73
2023/05/01 07:30:37;;;;;;;12.52;6.68;;;;;;;;;;5071510;28;20055;-73
2023/05/01 07:33:04;;;;;;;12.73;6.43;;;;;;;;;;5071778;28;20040;-73
2023/05/01 07:35:31;;;;;;;9.27;6.20;;;;;;;;;;5070103;28;20049;-74
2023/05/01 07:37:57;;;;;;;14.27;6.72;;;;;;;;;;5070923;28;20396;-73
2023/05/01 07:40:23;;;;;;;10.93;6.38;;;;;;;;;;5070028;28;20062;-72
2023/05/01 07:42:50;;;;;;;10.68;6.50;;;;;;;;;;5071521;28;20127;-73
2023/05/01 07:45:16;;;;;;;12.15;6.07;;;;;;;;;;5071659;28;20075;-73
2023/05/01 07:47:42;;;;;;;12.77;6.53;;;;;;;;;;5071445;28;20517;-73
2023/05/01 07:50:12;;;;;;;12.32;6.20;;;;;;;;;;5069916;28;20104;-73
2023/05/01 07:52:38;;;;;;;11.45;6.57;;;;;;;;;;5070445;28;20048;-72
2023/05/01 07:55:05;;;;;;;10.88;6.13;;;;;;;;;;5052082;28;20087;-73
2023/05/01 07:57:34;;;;;;;10.15;5.82;;;;;;;;;;5069576;28;20052;-74
2023/05/01 08:00:00;;;;;;;9.45;5.50;;;;;;;;;;5068690;28;20041;-73
2023/05/01 08:02:26;;;;;;;9.32;5.68;;;;;;;;;;5069364;28;20048;-74
2023/05/01 08:04:52;;;;;;;12.13;5.63;;;;;;;;;;5069205;28;20032;-74
2023/05/01 08:07:18;;;;;;;10.90;5.15;;;;;;;;;;5068522;28;20052;-75
2023/05/01 08:09:45;;;;;;;11.00;5.10;;;;;;;;;;5070636;28;20063;-75
2023/05/01 08:12:13;;;;;;;11.20;5.57;;;;;;;;;;5070278;28;20082;-73
2023/05/01 08:14:39;;;;;;;10.02;5.20;;;;;;;;;;5072457;28;20451;-74
2023/05/01 08:17:05;;;;;;;10.85;4.82;;;;;;;;;;5074007;28;20044;-71
2023/05/01 08:19:31;;;;;;;9.93;4.72;;;;;;;;;;5073374;28;20091;-73
2023/05/01 08:21:57;;;;;;;12.45;4.50;;;;;;;;;;5073218;28;20048;-73
2023/05/01 08:24:23;;;;;;;9.05;4.43;;;;;;;;;;5074698;28;20370;-73
2023/05/01 08:26:50;;;;;;;10.30;4.15;;;;;;;;;;5074756;28;20139;-73
2023/05/01 08:29:16;;;;;;;9.32;4.15;;;;;;;;;;5073633;28;20062;-72
2023/05/01 08:31:42;;;;;;;9.35;3.97;;;;;;;;;;5073052;28;20053;-73
2023/05/01 08:34:08;;;;;;;8.40;3.80;;;;;;;;;;5074773;28;20049;-73
2023/05/01 08:36:34;;;;;;;10.13;4.60;;;;;;;;;;5073489;28;20166;-72
2023/05/01 08:39:00;;;;;;;8.52;4.00;;;;;;;;;;5073488;28;20083;-72
2023/05/01 08:41:27;;;;;;;14.95;4.72;;;;;;;;;;5056258;28;20189;-73
2023/05/01 08:43:57;;;;;;;10.68;4.90;;;;;;;;;;5072505;28;20040;-73
2023/05/01 08:46:35;;;;;;;9.18;4.38;;;;;;;;;;5056206;28;20128;-73
2023/05/01 08:49:01;;;;;;;;;;;;;;;;;;5073115;28;20049;-73
2023/05/01 08:51:30;;;;;;;8.32;3.72;;;;;;;;;;5073345;28;19924;-72
2023/05/01 08:53:57;;;;;;;7.35;3.92;;;;;;;;;;5069150;28;20041;-73
2023/05/01 08:56:25;;;;;;;9.32;3.95;;;;;;;;;;5072251;28;20120;-74
2023/05/01 08:58:52;;;;;;;7.50;3.63;;;;;;;;;;5058792;28;20075;-72
2023/05/01 09:01:18;;;;;;;7.75;3.70;;;;;;;;;;5082312;28;20433;-72
2023/05/01 09:03:45;;;;;;;6.53;3.72;;;;;;;;;;5088860;28;20128;-72
2023/05/01 09:06:12;;;;;;;9.32;3.53;;;;;;;;;;5073799;28;20449;-74
2023/05/01 09:08:38;;;;;;;8.43;3.70;;;;;;;;;;5072098;28;20059;-73
2023/05/01 09:11:05;;;;;;;11.32;3.75;;;;;;;;;;5071383;28;20105;-73
2023/05/01 09:13:31;;;;;;;10.55;3.45;;;;;;;;;;5072319;28;20199;-73
2023/05/01 09:15:57;;;;;;;6.97;3.40;;;;;;;;;;5092331;28;20207;-72
2023/05/01 09:18:23;;;;;;;11.00;3.70;;;;;;;;;;5068086;28;20045;-73
2023/05/01 09:20:51;;;;;;;6.68;2.92;;;;;;;;;;5054665;28;20127;-73
2023/05/01 09:23:18;;;;;;;6.70;3.10;;;;;;;;;;5065255;28;20082;-73
2023/05/01 09:25:45;;;;;;;7.40;3.13;;;;;;;;;;5086588;28;20055;-73
2023/05/01 09:28:11;;;;;;;6.18;3.15;;;;;;;;;;5089826;28;20446;-73
2023/05/01 09:30:38;;;;;;;7.25;2.90;;;;;;;;;;5090467;28;20574;-73
2023/05/01 09:33:11;;;;;;;8.80;3.00;;;;;;;;;;5088898;28;20083;-73
2023/05/01 09:35:50;;;;;;;6.40;2.70;;;;;;;;;;5082526;28;20605;-73
2023/05/01 09:38:17;;;;;;;8.40;2.97;;;;;;;;;;5069449;28;20374;-73
2023/05/01 09:40:43;;;;;;;6.25;2.40;;;;;;;;;;5067784;28;20086;-73
2023/05/01 09:43:09;;;;;;;6.93;3.00;;;;;;;;;;5069413;28;20040;-73
2023/05/01 09:45:35;;;;;;;6.90;2.92;;;;;;;;;;5070501;28;20048;-73
2023/05/01 09:48:09;;;;;;;7.72;2.97;;;;;;;;;;5071525;28;20053;-75
2023/05/01 09:50:35;;;;;;;9.25;3.40;;;;;;;;;;5070490;28;20048;-73
2023/05/01 09:53:03;;;;;;;6.82;2.70;;;;;;;;;;5072801;28;20044;-72
2023/05/01 09:55:29;;;;;;;6.97;2.70;;;;;;;;;;5070932;28;20433;-73
2023/05/01 09:57:57;;;;;;;7.90;3.05;;;;;;;;;;5072176;28;20040;-73
2023/05/01 10:00:24;;;;;;;5.40;2.50;;;;;;;;;;5051633;28;20044;-73
2023/05/01 10:02:50;;;;;;;6.63;2.50;;;;;;;;;;5063922;28;20396;-73
2023/05/01 10:05:17;;;;;;;7.03;2.42;;;;;;;;;;5071835;28;20370;-73
2023/05/01 10:08:04;;;;;;;8.50;2.95;;;;;;;;;;5072682;28;20117;-72
2023/05/01 10:10:30;;;;;;;4.13;2.10;;;;;;;;;;5071370;28;20501;-72
2023/05/01 10:13:12;;;;;;;5.47;2.45;;;;;;;;;;5071947;28;20394;-72
2023/05/01 10:15:38;;;;;;;6.22;1.90;;;;;;;;;;5070829;28;20079;-73
2023/05/01 10:18:04;;;;;;;7.05;1.85;;;;;;;;;;5052893;28;20048;-72
2023/05/01 10:20:32;;;;;;;4.85;1.77;;;;;;;;;;5070558;28;20067;-73
2023/05/01 10:22:59;;;;;;;3.63;1.75;;;;;;;;;;5073084;28;20047;-72
2023/05/01 10:25:27;;;;;;;4.18;1.80;;;;;;;;;;5071699;28;20052;-72
2023/05/01 10:27:53;;;;;;;4.55;2.10;;;;;;;;;;5073007;28;20044;-72
2023/05/01 10:30:19;;;;;;;5.78;1.90;;;;;;;;;;5071191;28;20080;-72
2023/05/01 10:32:46;;;;;;;4.15;1.85;;;;;;;;;;5070480;28;20087;-73
2023/05/01 10:35:21;;;;;;;5.45;1.77;;;;;;;;;;5054943;28;20147;-72
2023/05/01 10:37:48;;;;;;;5.68;2.00;;;;;;;;;;5072257;28;20182;-72
2023/05/01 10:40:33;;;;;;;3.97;2.17;;;;;;;;;;5071692;28;20038;-73
2023/05/01 10:43:16;;;;;;;4.53;2.05;;;;;;;;;;5072733;28;20047;-72
2023/05/01 10:45:43;;;;;;;3.72;1.63;;;;;;;;;;5072479;28;20089;-72
2023/05/01 10:48:09;;;;;;;5.20;2.10;;;;;;;;;;5072769;28;20055;-72
2023/05/01 10:50:35;;;;;;;4.82;2.28;;;;;;;;;;5072271;28;20172;-72
2023/05/01 10:53:10;;;;;;;5.13;2.10;;;;;;;;;;5054180;28;20052;-72
2023/05/01 10:55:37;;;;;;;4.22;2.10;;;;;;;;;;5050486;28;20037;-73
2023/05/01 10:58:03;;;;;;;4.45;1.90;;;;;;;;;;5050907;28;20052;-73
2023/05/01 11:00:32;;;;;;;3.72;2.00;;;;;;;;;;5050772;28;20406;-73
2023/05/01 11:03:19;;;;;;;4.22;2.10;;;;;;;;;;5051961;28;20048;-72
2023/05/01 11:06:08;;;;;;;3.58;1.90;;;;;;;;;;5047624;28;20049;-73
2023/05/01 11:08:34;;;;;;;6.93;2.33;;;;;;;;;;5048867;28;20383;-71
2023/05/01 11:11:23;;;;;;;5.47;2.17;;;;;;;;;;5054249;28;20234;-72
2023/05/01 11:13:56;;;;;;;6.70;2.60;;;;;;;;;;5053304;28;20048;-72
2023/05/01 11:16:40;;;;;;;4.60;2.00;;;;;;;;;;5070841;28;20040;-72
2023/05/01 11:19:08;;;;;;;5.00;2.10;;;;;;;;;;5070802;28;20110;-72
2023/05/01 11:21:35;;;;;;;4.78;2.10;;;;;;;;;;5072257;28;20048;-72
2023/05/01 11:24:02;;;;;;;4.93;2.30;;;;;;;;;;5072504;28;20393;-72
2023/05/01 11:26:29;;;;;;;4.78;2.03;;;;;;;;;;5070596;28;20106;-72
2023/05/01 11:28:56;;;;;;;4.82;2.00;;;;;;;;;;5054851;28;20055;-71
2023/05/01 11:31:22;;;;;;;4.25;1.95;;;;;;;;;;5071911;28;20067;-72
2023/05/01 11:33:49;;;;;;;6.35;2.45;;;;;;;;;;5071401;28;20044;-73
2023/05/01 11:36:15;;;;;;;6.20;2.25;;;;;;;;;;5072497;28;20064;-72
2023/05/01 11:38:51;;;;;;;3.95;2.22;;;;;;;;;;5071892;28;20037;-73
2023/05/01 11:41:20;;;;;;;4.78;2.58;;;;;;;;;;5051167;28;20056;-76
2023/05/01 11:43:50;;;;;;;6.10;2.40;;;;;;;;;;5051215;28;20440;-76
2023/05/01 11:46:27;;;;;;;3.35;1.90;;;;;;;;;;5048907;28;20254;-76
2023/05/01 11:48:56;;;;;;;4.10;2.13;;;;;;;;;;5067290;28;20350;-75
2023/05/01 11:51:23;;;;;;;3.80;1.80;;;;;;;;;;5071220;28;20127;-76
2023/05/01 11:54:04;;;;;;;4.30;1.90;;;;;;;;;;5071118;28;20049;-76
2023/05/01 11:56:31;;;;;;;4.25;1.95;;;;;;;;;;5071663;28;20507;-76
2023/05/01 11:58:59;;;;;;;3.35;1.70;;;;;;;;;;5068636;28;20055;-76
2023/05/01 12:01:34;;;;;;;4.82;2.10;;;;;;;;;;5051090;28;20045;-76
2023/05/01 12:04:01;;;;;;;4.25;1.75;;;;;;;;;;5068070;28;20111;-76
2023/05/01 12:06:39;;;;;;;3.72;1.70;;;;;;;;;;5067672;28;20417;-75
2023/05/01 12:09:07;;;;;;;4.13;1.58;;;;;;;;;;5069086;28;20438;-74
2023/05/01 12:11:34;;;;;;;5.40;1.73;;;;;;;;;;5075311;28;20055;-74
2023/05/01 12:14:00;;;;;;;3.67;1.70;;;;;;;;;;5074580;28;20485;-74
2023/05/01 12:16:28;;;;;;;4.13;1.50;;;;;;;;;;5074379;28;20048;-74
2023/05/01 12:18:54;;;;;;;3.30;1.73;;;;;;;;;;5074595;28;20132;-74
2023/05/01 12:21:21;;;;;;;3.88;1.80;;;;;;;;;;5075483;28;20079;-74
2023/05/01 12:23:48;;;;;;;5.60;1.95;;;;;;;;;;5075198;28;20048;-74
2023/05/01 12:26:24;;;;;;;2.65;1.60;;;;;;;;;;5073990;28;20041;-74
2023/05/01 12:28:56;;;;;;;4.18;1.50;;;;;;;;;;5074479;28;20040;-74
2023/05/01 12:31:24;;;;;;;4.57;1.95;;;;;;;;;;5073574;28;20126;-73
2023/05/01 12:33:55;;;;;;;3.67;2.00;;;;;;;;;;5057690;28;20097;-73
2023/05/01 12:36:26;;;;;;;4.75;1.80;;;;;;;;;;5075341;28;20087;-74
2023/05/01 12:39:13;;;;;;;3.83;1.90;;;;;;;;;;5075126;28;20164;-74
2023/05/01 12:41:41;;;;;;;6.10;2.10;;;;;;;;;;5074993;28;20097;-74
2023/05/01 12:44:17;;;;;;;6.20;1.77;;;;;;;;;;5075148;28;20382;-73
2023/05/01 12:46:44;;;;;;;5.63;1.90;;;;;;;;;;5057376;28;20401;-73
2023/05/01 12:49:16;;;;;;;4.70;1.92;;;;;;;;;;5075591;28;20433;-74
2023/05/01 12:51:46;;;;;;;5.95;2.17;;;;;;;;;;5074394;28;20154;-72
2023/05/01 12:54:14;;;;;;;6.55;2.47;;;;;;;;;;5074499;28;20392;-73
2023/05/01 12:56:40;;;;;;;4.85;1.80;;;;;;;;;;5074947;28;20044;-73
2023/05/01 12:59:06;;;;;;;3.72;1.83;;;;;;;;;;5057396;28;20048;-73
2023/05/01 13:01:33;;;;;;;3.42;1.80;;;;;;;;;;5074184;28;20117;-73
2023/05/01 13:03:59;;;;;;;5.60;2.00;;;;;;;;;;5074230;28;20044;-74
2023/05/01 13:06:35;;;;;;;5.70;2.10;;;;;;;;;;5073526;28;20090;-74
2023/05/01 13:09:09;;;;;;;6.07;2.20;;;;;;;;;;5072278;28;20056;-75
2023/05/01 13:11:35;;;;;;;6.82;2.15;;;;;;;;;;5074111;28;20099;-75
2023/05/01 13:14:07;;;;;;;3.35;1.67;;;;;;;;;;5072503;28;20036;-74
2023/05/01 13:16:33;;;;;;;6.47;2.08;;;;;;;;;;5080426;28;20067;-74
2023/05/01 13:19:00;;;;;;;4.43;2.00;;;;;;;;;;5092584;28;20495;-74
2023/05/01 13:21:26;;;;;;;3.78;1.58;;;;;;;;;;5074647;28;20044;-74
2023/05/01 13:23:57;;;;;;;5.13;1.88;;;;;;;;;;5071555;28;20075;-73
2023/05/01 13:26:31;;;;;;;5.47;2.03;;;;;;;;;;5072927;28;20044;-73
2023/05/01 13:28:58;;;;;;;4.35;1.85;;;;;;;;;;5072304;28;20056;-73
2023/05/01 13:31:25;;;;;;;5.93;2.33;;;;;;;;;;5055259;28;20477;-74
2023/05/01 13:33:52;;;;;;;7.85;2.30;;;;;;;;;;5073618;28;20056;-74
2023/05/01 13:36:18;;;;;;;6.30;2.60;;;;;;;;;;5071946;28;20076;-74
2023/05/01 13:38:49;;;;;;;6.50;2.45;;;;;;;;;;5073560;28;20047;-74
2023/05/01 13:41:18;;;;;;;5.57;2.53;;;;;;;;;;5072623;28;20048;-75
2023/05/01 13:43:44;;;;;;;5.78;2.70;;;;;;;;;;5072594;28;20048;-73
2023/05/01 13:46:11;;;;;;;6.88;2.90;;;;;;;;;;5072882;28;20041;-73
2023/05/01 13:48:39;;;;;;;5.97;2.67;;;;;;;;;;5072097;28;20056;-73
2023/05/01 13:51:05;;;;;;;8.32;2.97;;;;;;;;;;5071734;28;20094;-73
2023/05/01 13:53:31;;;;;;;6.72;3.03;;;;;;;;;;5068478;28;20045;-74
2023/05/01 13:55:57;;;;;;;5.95;2.72;;;;;;;;;;5052518;28;20048;-73
2023/05/01 13:58:24;;;;;;;6.43;3.00;;;;;;;;;;5051334;28;20049;-75
2023/05/01 14:00:50;;;;;;;7.13;2.88;;;;;;;;;;5071752;28;20388;-74
2023/05/01 14:03:17;;;;;;;6.85;3.00;;;;;;;;;;5071807;28;20063;-74
2023/05/01 14:05:43;;;;;;;8.32;2.90;;;;;;;;;;5071969;28;20048;-74
2023/05/01 14:08:09;;;;;;;7.22;2.80;;;;;;;;;;5072031;28;20067;-75
2023/05/01 14:10:35;;;;;;;5.50;2.33;;;;;;;;;;5071039;28;20089;-77
2023/05/01 14:13:03;;;;;;;4.25;2.35;;;;;;;;;;5068492;28;20121;-74
2023/05/01 14:15:30;;;;;;;6.75;2.42;;;;;;;;;;5070212;28;20037;-75
2023/05/01 14:17:59;;;;;;;6.18;2.58;;;;;;;;;;5069714;28;20063;-75
2023/05/01 14:20:25;;;;;;;6.18;2.50;;;;;;;;;;5069859;28;20442;-75
2023/05/01 14:22:52;;;;;;;9.18;2.30;;;;;;;;;;5070630;28;20045;-73
2023/05/01 14:25:24;;;;;;;6.15;2.70;;;;;;;;;;5071128;28;20044;-74
2023/05/01 14:27:50;;;;;;;9.10;2.60;;;;;;;;;;5071858;28;20044;-74
2023/05/01 14:30:20;;;;;;;4.95;2.53;;;;;;;;;;5070264;28;20408;-74
2023/05/01 14:32:46;;;;;;;6.05;2.53;;;;;;;;;;5071490;28;20049;-74
2023/05/01 14:35:13;;;;;;;6.75;2.58;;;;;;;;;;5071713;28;20051;-74
2023/05/01 14:37:40;;;;;;;6.10;2.42;;;;;;;;;;5071668;28;20106;-74
2023/05/01 14:40:11;;;;;;;6.40;2.60;;;;;;;;;;5071415;28;20036;-74